createdAt,value
2023-03-05T00:00:34.689Z,0.00
2023-03-05T00:01:34.617Z,0.00
2023-03-05T00:02:34.683Z,0.00
2023-03-05T00:03:34.632Z,0.00
2023-03-05T00:04:34.594Z,0.00
2023-03-05T00:05:34.565Z,0.00
2023-03-05T00:06:34.628Z,0.00
2023-03-05T00:07:34.546Z,0.00
2023-03-05T00:08:34.554Z,0.00
2023-03-05T00:09:35.901Z,0.00
2023-03-05T00:10:34.538Z,0.00
2023-03-05T00:11:34.509Z,0.00
2023-03-05T00:12:34.501Z,0.00
2023-03-05T00:13:34.489Z,0.00
2023-03-05T00:14:34.485Z,0.00
2023-03-05T00:15:34.442Z,0.00
2023-03-05T00:16:34.450Z,0.00
2023-03-05T00:17:34.403Z,0.00
2023-03-05T00:18:34.413Z,0.00
2023-03-05T00:19:34.381Z,0.00
2023-03-05T00:20:34.421Z,0.00
2023-03-05T00:21:34.371Z,0.00
2023-03-05T00:22:34.359Z,0.00
2023-03-05T00:23:34.327Z,0.00
2023-03-05T00:24:34.327Z,0.00
2023-03-05T00:25:34.327Z,0.00
2023-03-05T00:26:34.328Z,0.00
2023-03-05T00:27:34.288Z,0.00
2023-03-05T00:28:34.283Z,0.00
2023-03-05T00:29:34.246Z,0.00
2023-03-05T00:30:34.256Z,0.00
2023-03-05T00:31:34.423Z,0.00
2023-03-05T00:32:34.270Z,0.00
2023-03-05T00:33:34.198Z,0.00
2023-03-05T00:34:34.231Z,0.00
2023-03-05T00:35:35.275Z,0.00
2023-03-05T00:36:34.199Z,0.00
2023-03-05T00:37:34.170Z,0.00
2023-03-05T00:38:34.152Z,0.00
2023-03-05T00:39:34.138Z,0.00
2023-03-05T00:40:34.176Z,0.00
2023-03-05T00:41:34.092Z,0.00
2023-03-05T00:42:34.138Z,0.00
2023-03-05T00:43:34.073Z,0.00
2023-03-05T00:44:34.090Z,0.00
2023-03-05T00:45:34.042Z,0.00
2023-03-05T00:46:34.133Z,0.00
2023-03-05T00:47:34.055Z,0.00
2023-03-05T00:48:34.028Z,0.00
2023-03-05T00:49:33.995Z,0.00
2023-03-05T00:50:34.011Z,0.00
2023-03-05T00:51:33.987Z,0.00
2023-03-05T00:52:33.993Z,0.00
2023-03-05T00:53:33.965Z,0.00
2023-03-05T00:54:33.955Z,0.00
2023-03-05T00:55:33.913Z,0.00
2023-03-05T00:56:33.942Z,0.00
2023-03-05T00:57:33.891Z,0.00
2023-03-05T00:58:33.937Z,0.00
2023-03-05T00:59:33.885Z,0.00
2023-03-05T01:00:33.884Z,0.00
2023-03-05T01:01:33.858Z,0.00
2023-03-05T01:02:34.901Z,0.00
2023-03-05T01:03:33.811Z,0.00
2023-03-05T01:04:33.832Z,0.00
2023-03-05T01:05:33.841Z,0.00
2023-03-05T01:06:33.803Z,0.00
2023-03-05T01:07:33.759Z,0.00
2023-03-05T01:08:33.775Z,0.00
2023-03-05T01:09:33.744Z,0.00
2023-03-05T01:10:33.730Z,0.00
2023-03-05T01:11:33.692Z,0.00
2023-03-05T01:12:33.699Z,0.00
2023-03-05T01:13:33.678Z,0.00
2023-03-05T01:14:33.696Z,0.00
2023-03-05T01:15:33.643Z,0.00
2023-03-05T01:16:33.738Z,0.00
2023-03-05T01:17:33.610Z,0.00
2023-03-05T01:18:33.644Z,0.00
2023-03-05T01:19:33.587Z,0.00
2023-03-05T01:20:33.622Z,0.00
2023-03-05T01:21:33.564Z,0.00
2023-03-05T01:22:33.602Z,0.00
2023-03-05T01:23:33.533Z,0.00
2023-03-05T01:24:33.554Z,0.00
2023-03-05T01:25:33.501Z,0.00
2023-03-05T01:26:33.517Z,0.00
2023-03-05T01:27:33.479Z,0.00
2023-03-05T01:28:33.547Z,0.00
2023-03-05T01:29:33.467Z,0.00
2023-03-05T01:30:33.508Z,0.00
2023-03-05T01:31:33.467Z,0.00
2023-03-05T01:32:34.757Z,0.00
2023-03-05T01:33:33.410Z,0.00
2023-03-05T01:34:33.442Z,0.00
2023-03-05T01:35:33.437Z,0.00
2023-03-05T01:36:33.425Z,0.00
2023-03-05T01:37:33.355Z,0.00
2023-03-05T01:38:33.349Z,0.00
2023-03-05T01:39:33.334Z,0.00
2023-03-05T01:40:33.331Z,0.00
2023-03-05T01:41:33.299Z,0.00
2023-03-05T01:42:33.329Z,0.00
2023-03-05T01:43:33.271Z,0.00
2023-03-05T01:44:33.295Z,0.00
2023-03-05T01:45:33.366Z,0.00
2023-03-05T01:46:33.258Z,0.00
2023-03-05T01:47:33.246Z,0.00
2023-03-05T01:48:33.229Z,0.00
2023-03-05T01:49:33.197Z,0.00
2023-03-05T01:50:33.197Z,0.00
2023-03-05T01:51:33.178Z,0.00
2023-03-05T01:52:33.211Z,0.00
2023-03-05T01:53:33.147Z,0.00
2023-03-05T01:54:33.164Z,0.00
2023-03-05T01:55:33.116Z,0.00
2023-03-05T01:56:33.132Z,0.00
2023-03-05T01:57:33.092Z,0.00
2023-03-05T01:58:33.131Z,0.00
2023-03-05T01:59:33.077Z,0.00
2023-03-05T02:00:33.094Z,0.00
2023-03-05T02:01:33.126Z,0.00
2023-03-05T02:02:33.065Z,0.00
2023-03-05T02:03:33.069Z,0.00
2023-03-05T02:04:33.056Z,0.00
2023-03-05T02:05:32.990Z,0.00
2023-03-05T02:06:32.995Z,0.00
2023-03-05T02:07:32.966Z,0.00
2023-03-05T02:08:32.964Z,0.00
2023-03-05T02:09:32.955Z,0.00
2023-03-05T02:10:32.963Z,0.00
2023-03-05T02:11:32.912Z,0.00
2023-03-05T02:12:32.921Z,0.00
2023-03-05T02:13:32.900Z,0.00
2023-03-05T02:14:32.903Z,0.00
2023-03-05T02:15:32.893Z,0.00
2023-03-05T02:16:32.925Z,0.00
2023-03-05T02:17:32.846Z,0.00
2023-03-05T02:18:32.841Z,0.00
2023-03-05T02:19:32.810Z,0.00
2023-03-05T02:20:32.851Z,0.00
2023-03-05T02:21:32.790Z,0.00
2023-03-05T02:22:32.854Z,0.00
2023-03-05T02:23:32.769Z,0.00
2023-03-05T02:24:32.765Z,0.00
2023-03-05T02:25:32.737Z,0.00
2023-03-05T02:26:32.748Z,0.00
2023-03-05T02:27:32.708Z,0.00
2023-03-05T02:28:32.758Z,0.00
2023-03-05T02:29:32.677Z,0.00
2023-03-05T02:30:32.695Z,0.00
2023-03-05T02:31:32.686Z,0.00
2023-03-05T02:32:32.744Z,0.00
2023-03-05T02:33:32.634Z,0.00
2023-03-05T02:34:32.664Z,0.00
2023-03-05T02:35:32.635Z,0.00
2023-03-05T02:36:32.620Z,0.00
2023-03-05T02:37:32.572Z,0.00
2023-03-05T02:38:32.623Z,0.00
2023-03-05T02:39:32.580Z,0.00
2023-03-05T02:40:32.588Z,0.00
2023-03-05T02:41:32.522Z,0.00
2023-03-05T02:42:32.557Z,0.00
2023-03-05T02:43:32.501Z,0.00
2023-03-05T02:44:32.555Z,0.00
2023-03-05T02:45:32.532Z,0.00
2023-03-05T02:46:32.487Z,0.00
2023-03-05T02:47:32.456Z,0.00
2023-03-05T02:48:32.447Z,0.00
2023-03-05T02:49:32.427Z,0.00
2023-03-05T02:50:32.425Z,0.00
2023-03-05T02:51:32.431Z,0.00
2023-03-05T02:52:32.404Z,0.00
2023-03-05T02:53:32.378Z,0.00
2023-03-05T02:54:32.413Z,0.00
2023-03-05T02:55:32.373Z,0.00
2023-03-05T02:56:32.365Z,0.00
2023-03-05T02:57:32.392Z,0.00
2023-03-05T02:58:32.342Z,0.00
2023-03-05T02:59:32.340Z,0.00
2023-03-05T03:00:32.308Z,0.00
2023-03-05T03:01:32.327Z,0.00
2023-03-05T03:02:32.300Z,0.00
2023-03-05T03:03:32.415Z,0.00
2023-03-05T03:04:32.250Z,0.00
2023-03-05T03:05:32.245Z,0.00
2023-03-05T03:06:32.289Z,0.00
2023-03-05T03:07:32.197Z,0.00
2023-03-05T03:08:32.209Z,0.00
2023-03-05T03:09:32.177Z,0.00
2023-03-05T03:10:32.176Z,0.00
2023-03-05T03:11:32.153Z,0.00
2023-03-05T03:12:32.181Z,0.00
2023-03-05T03:13:32.131Z,0.00
2023-03-05T03:14:32.112Z,0.00
2023-03-05T03:15:32.100Z,0.00
2023-03-05T03:16:32.156Z,0.00
2023-03-05T03:17:32.062Z,0.00
2023-03-05T03:18:32.101Z,0.00
2023-03-05T03:19:32.031Z,0.00
2023-03-05T03:20:32.039Z,0.00
2023-03-05T03:21:32.040Z,0.00
2023-03-05T03:22:32.022Z,0.00
2023-03-05T03:23:32.003Z,0.00
2023-03-05T03:24:32.002Z,0.00
2023-03-05T03:25:31.952Z,0.00
2023-03-05T03:26:32.017Z,0.00
2023-03-05T03:27:31.929Z,0.00
2023-03-05T03:28:31.955Z,0.00
2023-03-05T03:29:31.917Z,0.00
2023-03-05T03:30:32.023Z,0.00
2023-03-05T03:31:31.899Z,0.00
2023-03-05T03:32:31.934Z,0.00
2023-03-05T03:33:31.857Z,0.00
2023-03-05T03:34:31.887Z,0.00
2023-03-05T03:35:31.916Z,0.00
2023-03-05T03:36:31.827Z,0.00
2023-03-05T03:37:31.843Z,0.00
2023-03-05T03:38:31.785Z,0.00
2023-03-05T03:39:31.806Z,0.00
2023-03-05T03:40:31.770Z,0.00
2023-03-05T03:41:31.785Z,0.00
2023-03-05T03:42:31.732Z,0.00
2023-03-05T03:43:31.782Z,0.00
2023-03-05T03:44:31.700Z,0.00
2023-03-05T03:45:31.746Z,0.00
2023-03-05T03:46:31.726Z,0.00
2023-03-05T03:47:31.707Z,0.00
2023-03-05T03:48:31.650Z,0.00
2023-03-05T03:49:31.684Z,0.00
2023-03-05T03:50:31.651Z,0.00
2023-03-05T03:51:31.649Z,0.00
2023-03-05T03:52:31.598Z,0.00
2023-03-05T03:53:31.624Z,0.00
2023-03-05T03:54:31.577Z,0.00
2023-03-05T03:55:31.615Z,0.00
2023-03-05T03:56:31.556Z,0.00
2023-03-05T03:57:31.589Z,0.00
2023-03-05T03:58:31.526Z,0.00
2023-03-05T03:59:31.537Z,0.00
2023-03-05T04:00:31.504Z,0.00
2023-03-05T04:01:31.521Z,0.00
2023-03-05T04:02:31.507Z,0.00
2023-03-05T04:03:31.502Z,0.00
2023-03-05T04:04:31.513Z,0.00
2023-03-05T04:05:31.461Z,0.00
2023-03-05T04:06:31.423Z,0.00
2023-03-05T04:07:31.435Z,0.00
2023-03-05T04:08:31.399Z,0.00
2023-03-05T04:09:31.421Z,0.00
2023-03-05T04:10:31.373Z,0.00
2023-03-05T04:11:31.399Z,0.00
2023-03-05T04:12:31.351Z,0.00
2023-03-05T04:13:31.365Z,0.00
2023-03-05T04:14:31.345Z,0.00
2023-03-05T04:15:31.337Z,0.00
2023-03-05T04:16:31.296Z,0.00
2023-03-05T04:17:31.312Z,0.00
2023-03-05T04:18:32.636Z,0.00
2023-03-05T04:19:31.302Z,0.00
2023-03-05T04:20:31.276Z,0.00
2023-03-05T04:21:31.263Z,0.00
2023-03-05T04:22:31.217Z,0.00
2023-03-05T04:23:31.230Z,0.00
2023-03-05T04:24:31.192Z,0.00
2023-03-05T04:25:31.202Z,0.00
2023-03-05T04:26:31.193Z,0.00
2023-03-05T04:27:31.169Z,0.00
2023-03-05T04:28:31.139Z,0.00
2023-03-05T04:29:31.156Z,0.00
2023-03-05T04:30:31.114Z,0.00
2023-03-05T04:31:31.146Z,0.00
2023-03-05T04:32:31.135Z,0.00
2023-03-05T04:33:31.112Z,0.00
2023-03-05T04:34:31.091Z,0.00
2023-03-05T04:35:31.121Z,0.00
2023-03-05T04:36:31.036Z,0.00
2023-03-05T04:37:31.068Z,0.00
2023-03-05T04:38:31.008Z,0.00
2023-03-05T04:39:31.034Z,0.00
2023-03-05T04:40:30.995Z,0.00
2023-03-05T04:41:31.000Z,0.00
2023-03-05T04:42:30.955Z,0.00
2023-03-05T04:43:30.983Z,0.00
2023-03-05T04:44:30.923Z,0.00
2023-03-05T04:45:30.952Z,0.00
2023-03-05T04:46:30.941Z,0.00
2023-03-05T04:47:37.967Z,0.00
2023-03-05T04:48:31.866Z,0.00
2023-03-05T04:49:30.923Z,0.00
2023-03-05T04:50:30.871Z,0.00
2023-03-05T04:51:30.884Z,0.00
2023-03-05T04:52:30.822Z,0.00
2023-03-05T04:53:30.858Z,0.00
2023-03-05T04:54:30.825Z,0.00
2023-03-05T04:55:31.788Z,0.00
2023-03-05T04:56:30.789Z,0.00
2023-03-05T04:57:30.901Z,0.00
2023-03-05T04:58:30.751Z,0.00
2023-03-05T04:59:30.770Z,0.00
2023-03-05T05:00:30.781Z,0.00
2023-03-05T05:01:30.845Z,0.00
2023-03-05T05:02:30.777Z,0.00
2023-03-05T05:03:30.703Z,0.00
2023-03-05T05:04:30.673Z,0.00
2023-03-05T05:05:31.708Z,0.00
2023-03-05T05:06:31.025Z,0.00
2023-03-05T05:07:30.684Z,0.00
2023-03-05T05:08:30.674Z,0.00
2023-03-05T05:09:30.655Z,0.00
2023-03-05T05:10:30.631Z,0.00
2023-03-05T05:11:31.394Z,0.00
2023-03-05T05:12:30.602Z,0.00
2023-03-05T05:13:30.612Z,0.00
2023-03-05T05:14:30.611Z,0.00
2023-03-05T05:15:30.584Z,0.00
2023-03-05T05:16:30.555Z,0.00
2023-03-05T05:17:31.517Z,0.00
2023-03-05T05:18:30.496Z,0.00
2023-03-05T05:19:30.571Z,0.00
2023-03-05T05:20:30.489Z,0.00
2023-03-05T05:21:31.514Z,0.00
2023-03-05T05:22:30.447Z,0.00
2023-03-05T05:23:30.476Z,0.00
2023-03-05T05:24:30.417Z,0.00
2023-03-05T05:25:30.505Z,0.00
2023-03-05T05:26:30.434Z,0.00
2023-03-05T05:27:30.442Z,0.00
2023-03-05T05:28:30.393Z,0.00
2023-03-05T05:29:30.459Z,0.00
2023-03-05T05:30:30.361Z,0.00
2023-03-05T05:31:30.442Z,0.00
2023-03-05T05:32:30.414Z,1.00
2023-03-05T05:33:30.360Z,0.00
2023-03-05T05:34:30.342Z,0.00
2023-03-05T05:35:30.343Z,1.00
2023-03-05T05:36:30.262Z,1.00
2023-03-05T05:37:30.301Z,0.00
2023-03-05T05:38:30.286Z,0.00
2023-03-05T05:39:30.267Z,2.00
2023-03-05T05:40:30.150Z,1.00
2023-03-05T05:41:30.219Z,0.00
2023-03-05T05:42:30.152Z,2.00
2023-03-05T05:43:30.173Z,1.00
2023-03-05T05:44:30.120Z,5.00
2023-03-05T05:45:30.343Z,4.00
2023-03-05T05:46:30.129Z,5.00
2023-03-05T05:47:30.146Z,5.00
2023-03-05T05:48:30.100Z,3.00
2023-03-05T05:49:30.121Z,6.00
2023-03-05T05:50:30.035Z,5.00
2023-03-05T05:51:30.073Z,9.00
2023-03-05T05:52:30.082Z,14.00
2023-03-05T05:53:30.047Z,16.00
2023-03-05T05:54:29.976Z,14.00
2023-03-05T05:55:30.052Z,17.00
2023-03-05T05:56:29.994Z,22.00
2023-03-05T05:57:30.013Z,24.00
2023-03-05T05:58:29.935Z,31.00
2023-03-05T05:59:29.956Z,29.00
2023-03-05T06:00:29.912Z,34.00
2023-03-05T06:01:29.940Z,42.00
2023-03-05T06:02:29.961Z,46.00
2023-03-05T06:03:30.001Z,50.00
2023-03-05T06:04:29.860Z,52.00
2023-03-05T06:05:29.876Z,60.00
2023-03-05T06:06:29.922Z,62.00
2023-03-05T06:07:29.849Z,67.00
2023-03-05T06:08:29.847Z,72.00
2023-03-05T06:09:29.874Z,74.00
2023-03-05T06:10:29.806Z,77.00
2023-03-05T06:11:29.823Z,78.00
2023-03-05T06:12:29.841Z,82.00
2023-03-05T06:13:29.775Z,84.00
2023-03-05T06:14:29.734Z,89.00
2023-03-05T06:15:29.829Z,89.00
2023-03-05T06:16:29.764Z,92.00
2023-03-05T06:17:31.066Z,101.00
2023-03-05T06:18:29.712Z,100.00
2023-03-05T06:19:29.833Z,96.00
2023-03-05T06:20:29.700Z,91.00
2023-03-05T06:21:29.687Z,96.00
2023-03-05T06:22:29.676Z,121.00
2023-03-05T06:23:29.663Z,140.00
2023-03-05T06:24:29.628Z,141.00
2023-03-05T06:25:29.691Z,136.00
2023-03-05T06:26:29.598Z,152.00
2023-03-05T06:27:29.601Z,162.00
2023-03-05T06:28:29.566Z,169.00
2023-03-05T06:29:29.595Z,163.00
2023-03-05T06:30:29.589Z,139.00
2023-03-05T06:31:29.588Z,147.00
2023-03-05T06:32:29.541Z,177.00
2023-03-05T06:33:29.592Z,188.00
2023-03-05T06:34:29.529Z,196.00
2023-03-05T06:35:29.537Z,204.00
2023-03-05T06:36:29.534Z,216.00
2023-03-05T06:37:29.482Z,218.00
2023-03-05T06:38:29.438Z,228.00
2023-03-05T06:39:29.469Z,229.00
2023-03-05T06:40:29.429Z,236.00
2023-03-05T06:41:29.447Z,250.00
2023-03-05T06:42:29.397Z,248.00
2023-03-05T06:43:29.397Z,253.00
2023-03-05T06:44:29.377Z,248.00
2023-03-05T06:45:29.400Z,253.00
2023-03-05T06:46:29.403Z,263.00
2023-03-05T06:47:29.360Z,264.00
2023-03-05T06:48:30.039Z,268.00
2023-03-05T06:49:29.338Z,275.00
2023-03-05T06:50:29.300Z,273.00
2023-03-05T06:51:29.387Z,284.00
2023-03-05T06:52:29.298Z,285.00
2023-03-05T06:53:29.309Z,293.00
2023-03-05T06:54:29.241Z,298.00
2023-03-05T06:55:29.279Z,303.00
2023-03-05T06:56:30.475Z,310.00
2023-03-05T06:57:29.240Z,313.00
2023-03-05T06:58:29.201Z,316.00
2023-03-05T06:59:29.233Z,315.00
2023-03-05T07:00:29.178Z,326.00
2023-03-05T07:01:29.940Z,323.00
2023-03-05T07:02:29.254Z,333.00
2023-03-05T07:03:29.221Z,351.00
2023-03-05T07:04:29.128Z,359.00
2023-03-05T07:05:29.205Z,363.00
2023-03-05T07:06:30.050Z,367.00
2023-03-05T07:07:29.926Z,372.00
2023-03-05T07:08:29.095Z,383.00
2023-03-05T07:09:29.120Z,385.00
2023-03-05T07:10:29.040Z,390.00
2023-03-05T07:11:29.067Z,399.00
2023-03-05T07:12:29.961Z,401.00
2023-03-05T07:13:29.043Z,398.00
2023-03-05T07:14:29.028Z,401.00
2023-03-05T07:15:29.759Z,396.00
2023-03-05T07:16:28.961Z,389.00
2023-03-05T07:17:28.978Z,398.00
2023-03-05T07:18:28.959Z,409.00
2023-03-05T07:19:28.948Z,419.00
2023-03-05T07:20:28.936Z,423.00
2023-03-05T07:21:28.926Z,428.00
2023-03-05T07:22:28.899Z,437.00
2023-03-05T07:23:28.917Z,444.00
2023-03-05T07:24:28.859Z,451.00
2023-03-05T07:25:28.864Z,467.00
2023-03-05T07:26:28.839Z,478.00
2023-03-05T07:27:28.877Z,477.00
2023-03-05T07:28:28.831Z,495.00
2023-03-05T07:29:28.881Z,503.00
2023-03-05T07:30:28.934Z,503.00
2023-03-05T07:31:28.801Z,507.00
2023-03-05T07:32:28.800Z,512.00
2023-03-05T07:33:29.461Z,516.00
2023-03-05T07:34:28.727Z,532.00
2023-03-05T07:35:28.775Z,546.00
2023-03-05T07:36:28.730Z,556.00
2023-03-05T07:37:28.707Z,553.00
2023-03-05T07:38:28.724Z,545.00
2023-03-05T07:39:28.717Z,554.00
2023-03-05T07:40:28.804Z,563.00
2023-03-05T07:41:28.674Z,571.00
2023-03-05T07:42:28.670Z,582.00
2023-03-05T07:43:28.636Z,591.00
2023-03-05T07:44:28.709Z,597.00
2023-03-05T07:45:28.605Z,608.00
2023-03-05T07:46:28.691Z,622.00
2023-03-05T07:47:28.592Z,614.00
2023-03-05T07:48:28.552Z,615.00
2023-03-05T07:49:28.531Z,618.00
2023-03-05T07:50:28.551Z,626.00
2023-03-05T07:51:28.523Z,634.00
2023-03-05T07:52:28.541Z,656.00
2023-03-05T07:53:28.482Z,656.00
2023-03-05T07:54:28.510Z,658.00
2023-03-05T07:55:28.460Z,664.00
2023-03-05T07:56:28.470Z,671.00
2023-03-05T07:57:28.457Z,683.00
2023-03-05T07:58:28.438Z,684.00
2023-03-05T07:59:28.407Z,697.00
2023-03-05T08:00:28.422Z,704.00
2023-03-05T08:01:28.439Z,700.00
2023-03-05T08:02:28.465Z,703.00
2023-03-05T08:03:28.369Z,698.00
2023-03-05T08:04:28.468Z,659.00
2023-03-05T08:05:28.334Z,594.00
2023-03-05T08:06:28.343Z,713.00
2023-03-05T08:07:28.319Z,800.00
2023-03-05T08:08:28.394Z,746.00
2023-03-05T08:09:28.310Z,744.00
2023-03-05T08:10:28.346Z,749.00
2023-03-05T08:11:28.253Z,778.00
2023-03-05T08:12:28.281Z,731.00
2023-03-05T08:13:28.252Z,787.00
2023-03-05T08:14:28.287Z,759.00
2023-03-05T08:15:28.501Z,749.00
2023-03-05T08:16:28.373Z,757.00
2023-03-05T08:17:28.176Z,792.00
2023-03-05T08:18:28.199Z,791.00
2023-03-05T08:19:28.164Z,793.00
2023-03-05T08:20:28.176Z,788.00
2023-03-05T08:21:28.174Z,749.00
2023-03-05T08:22:28.215Z,691.00
2023-03-05T08:23:28.147Z,670.00
2023-03-05T08:24:28.103Z,676.00
2023-03-05T08:25:28.072Z,798.00
2023-03-05T08:26:28.187Z,796.00
2023-03-05T08:27:28.086Z,774.00
2023-03-05T08:28:28.148Z,829.00
2023-03-05T08:29:28.024Z,796.00
2023-03-05T08:30:28.053Z,798.00
2023-03-05T08:31:28.153Z,793.00
2023-03-05T08:32:28.091Z,827.00
2023-03-05T08:33:30.273Z,849.00
2023-03-05T08:34:27.976Z,853.00
2023-03-05T08:35:28.005Z,862.00
2023-03-05T08:36:28.022Z,860.00
2023-03-05T08:37:27.956Z,874.00
2023-03-05T08:38:27.937Z,877.00
2023-03-05T08:39:27.898Z,873.00
2023-03-05T08:40:27.904Z,862.00
2023-03-05T08:41:27.873Z,852.00
2023-03-05T08:42:27.902Z,857.00
2023-03-05T08:43:27.843Z,871.00
2023-03-05T08:44:27.872Z,905.00
2023-03-05T08:45:27.821Z,936.00
2023-03-05T08:46:27.876Z,944.00
2023-03-05T08:47:27.823Z,939.00
2023-03-05T08:48:27.823Z,926.00
2023-03-05T08:49:27.764Z,924.00
2023-03-05T08:50:27.802Z,943.00
2023-03-05T08:51:27.756Z,956.00
2023-03-05T08:52:27.747Z,964.00
2023-03-05T08:53:27.749Z,967.00
2023-03-05T08:54:27.768Z,971.00
2023-03-05T08:55:27.695Z,964.00
2023-03-05T08:56:27.744Z,971.00
2023-03-05T08:57:27.664Z,975.00
2023-03-05T08:58:27.681Z,971.00
2023-03-05T08:59:27.645Z,983.00
2023-03-05T09:00:27.701Z,1006.00
2023-03-05T09:01:27.743Z,1010.00
2023-03-05T09:02:27.682Z,1018.00
2023-03-05T09:03:27.744Z,1018.00
2023-03-05T09:04:27.598Z,1008.00
2023-03-05T09:05:27.594Z,1003.00
2023-03-05T09:06:27.621Z,1000.00
2023-03-05T09:07:27.541Z,988.00
2023-03-05T09:08:27.585Z,983.00
2023-03-05T09:09:27.518Z,960.00
2023-03-05T09:10:27.575Z,931.00
2023-03-05T09:11:27.540Z,924.00
2023-03-05T09:12:27.529Z,980.00
2023-03-05T09:13:27.468Z,906.00
2023-03-05T09:14:27.509Z,913.00
2023-03-05T09:15:27.436Z,885.00
2023-03-05T09:16:27.707Z,828.00
2023-03-05T09:17:27.416Z,780.00
2023-03-05T09:18:27.444Z,776.00
2023-03-05T09:19:27.440Z,780.00
2023-03-05T09:20:27.432Z,701.00
2023-03-05T09:21:27.390Z,757.00
2023-03-05T09:22:27.382Z,979.00
2023-03-05T09:23:27.364Z,971.00
2023-03-05T09:24:27.377Z,1094.00
2023-03-05T09:25:27.320Z,1027.00
2023-03-05T09:26:27.328Z,1036.00
2023-03-05T09:27:27.291Z,1065.00
2023-03-05T09:28:27.304Z,1090.00
2023-03-05T09:29:27.286Z,1104.00
2023-03-05T09:30:27.335Z,1094.00
2023-03-05T09:31:27.299Z,1058.00
2023-03-05T09:32:27.293Z,973.00
2023-03-05T09:33:27.214Z,1091.00
2023-03-05T09:34:27.214Z,1134.00
2023-03-05T09:35:27.502Z,1154.00
2023-03-05T09:36:27.256Z,1143.00
2023-03-05T09:37:27.174Z,1144.00
2023-03-05T09:38:27.172Z,1134.00
2023-03-05T09:39:27.152Z,1115.00
2023-03-05T09:40:27.154Z,1077.00
2023-03-05T09:41:27.142Z,1070.00
2023-03-05T09:42:27.161Z,1090.00
2023-03-05T09:43:27.088Z,1112.00
2023-03-05T09:44:27.104Z,1133.00
2023-03-05T09:45:27.078Z,1144.00
2023-03-05T09:46:27.068Z,1119.00
2023-03-05T09:47:27.333Z,1103.00
2023-03-05T09:48:27.071Z,1090.00
2023-03-05T09:49:28.088Z,1076.00
2023-03-05T09:50:27.034Z,1037.00
2023-03-05T09:51:26.989Z,1160.00
2023-03-05T09:52:27.014Z,1302.00
2023-03-05T09:53:27.016Z,1147.00
2023-03-05T09:54:26.970Z,1155.00
2023-03-05T09:55:26.940Z,1167.00
2023-03-05T09:56:26.972Z,1191.00
2023-03-05T09:57:27.001Z,1203.00
2023-03-05T09:58:26.934Z,1184.00
2023-03-05T09:59:26.965Z,1159.00
2023-03-05T10:00:26.901Z,1148.00
2023-03-05T10:01:26.892Z,1149.00
2023-03-05T10:02:26.866Z,1208.00
2023-03-05T10:03:26.985Z,1194.00
2023-03-05T10:04:26.869Z,1197.00
2023-03-05T10:05:26.812Z,1194.00
2023-03-05T10:06:26.877Z,1202.00
2023-03-05T10:07:26.777Z,1200.00
2023-03-05T10:08:26.794Z,1140.00
2023-03-05T10:09:26.808Z,1097.00
2023-03-05T10:10:26.770Z,1061.00
2023-03-05T10:11:27.775Z,1035.00
2023-03-05T10:12:26.804Z,1044.00
2023-03-05T10:13:26.731Z,1106.00
2023-03-05T10:14:26.724Z,1081.00
2023-03-05T10:15:26.770Z,1015.00
2023-03-05T10:16:26.747Z,884.00
2023-03-05T10:17:26.694Z,1095.00
2023-03-05T10:18:26.704Z,1077.00
2023-03-05T10:19:26.688Z,1010.00
2023-03-05T10:20:26.685Z,1066.00
2023-03-05T10:21:26.640Z,1052.00
2023-03-05T10:22:26.666Z,921.00
2023-03-05T10:23:26.589Z,834.00
2023-03-05T10:24:26.631Z,927.00
2023-03-05T10:25:26.619Z,1127.00
2023-03-05T10:26:26.566Z,958.00
2023-03-05T10:27:26.593Z,1000.00
2023-03-05T10:28:26.547Z,885.00
2023-03-05T10:29:26.545Z,908.00
2023-03-05T10:30:26.523Z,658.00
2023-03-05T10:31:26.600Z,857.00
2023-03-05T10:32:26.538Z,991.00
2023-03-05T10:33:26.465Z,1212.00
2023-03-05T10:34:26.551Z,1173.00
2023-03-05T10:35:26.555Z,978.00
2023-03-05T10:36:26.488Z,1006.00
2023-03-05T10:37:26.450Z,1054.00
2023-03-05T10:38:26.423Z,1093.00
2023-03-05T10:39:26.404Z,981.00
2023-03-05T10:40:26.410Z,1034.00
2023-03-05T10:41:26.440Z,1011.00
2023-03-05T10:42:26.418Z,1012.00
2023-03-05T10:43:26.329Z,1031.00
2023-03-05T10:44:26.388Z,998.00
2023-03-05T10:45:26.308Z,918.00
2023-03-05T10:46:26.352Z,955.00
2023-03-05T10:47:26.329Z,1026.00
2023-03-05T10:48:33.354Z,955.00
2023-03-05T10:49:26.268Z,1032.00
2023-03-05T10:50:26.303Z,1040.00
2023-03-05T10:51:26.237Z,1039.00
2023-03-05T10:52:26.273Z,1009.00
2023-03-05T10:53:26.241Z,975.00
2023-03-05T10:54:26.214Z,1001.00
2023-03-05T10:55:26.179Z,908.00
2023-03-05T10:56:26.242Z,777.00
2023-03-05T10:57:26.155Z,1009.00
2023-03-05T10:58:26.189Z,964.00
2023-03-05T10:59:26.161Z,850.00
2023-03-05T11:00:26.163Z,699.00
2023-03-05T11:01:26.195Z,829.00
2023-03-05T11:02:26.154Z,837.00
2023-03-05T11:03:26.097Z,854.00
2023-03-05T11:04:26.111Z,860.00
2023-03-05T11:05:26.088Z,887.00
2023-03-05T11:06:26.071Z,856.00
2023-03-05T11:07:26.030Z,957.00
2023-03-05T11:08:26.057Z,864.00
2023-03-05T11:09:26.001Z,869.00
2023-03-05T11:10:26.034Z,875.00
2023-03-05T11:11:26.023Z,893.00
2023-03-05T11:12:25.979Z,889.00
2023-03-05T11:13:25.948Z,908.00
2023-03-05T11:14:25.959Z,912.00
2023-03-05T11:15:25.934Z,900.00
2023-03-05T11:16:26.061Z,882.00
2023-03-05T11:17:25.928Z,888.00
2023-03-05T11:18:26.073Z,909.00
2023-03-05T11:19:25.870Z,893.00
2023-03-05T11:20:25.889Z,883.00
2023-03-05T11:21:25.841Z,902.00
2023-03-05T11:22:25.960Z,912.00
2023-03-05T11:23:25.852Z,900.00
2023-03-05T11:24:25.833Z,894.00
2023-03-05T11:25:25.814Z,897.00
2023-03-05T11:26:25.787Z,887.00
2023-03-05T11:27:25.769Z,902.00
2023-03-05T11:28:32.992Z,901.00
2023-03-05T11:29:26.758Z,914.00
2023-03-05T11:30:25.803Z,924.00
2023-03-05T11:31:25.731Z,930.00
2023-03-05T11:32:25.833Z,924.00
2023-03-05T11:33:25.685Z,907.00
2023-03-05T11:34:25.696Z,899.00
2023-03-05T11:35:25.700Z,899.00
2023-03-05T11:36:25.684Z,899.00
2023-03-05T11:37:25.706Z,894.00
2023-03-05T11:38:25.744Z,914.00
2023-03-05T11:39:25.611Z,932.00
2023-03-05T11:40:25.614Z,965.00
2023-03-05T11:41:25.592Z,1008.00
2023-03-05T11:42:25.590Z,1066.00
2023-03-05T11:43:25.567Z,1089.00
2023-03-05T11:44:25.614Z,1059.00
2023-03-05T11:45:25.559Z,1020.00
2023-03-05T11:46:25.550Z,1030.00
2023-03-05T11:47:25.507Z,1026.00
2023-03-05T11:48:25.512Z,1050.00
2023-03-05T11:49:25.496Z,1073.00
2023-03-05T11:50:25.509Z,1081.00
2023-03-05T11:51:25.457Z,1106.00
2023-03-05T11:52:25.491Z,1190.00
2023-03-05T11:53:25.427Z,1357.00
2023-03-05T11:54:25.459Z,1416.00
2023-03-05T11:55:25.399Z,1517.00
2023-03-05T11:56:25.451Z,1473.00
2023-03-05T11:57:25.384Z,1421.00
2023-03-05T11:58:25.420Z,1449.00
2023-03-05T11:59:25.411Z,1345.00
2023-03-05T12:00:25.425Z,1275.00
2023-03-05T12:01:25.376Z,1230.00
2023-03-05T12:02:25.413Z,1257.00
2023-03-05T12:03:25.449Z,1381.00
2023-03-05T12:04:25.289Z,1942.00
2023-03-05T12:05:25.305Z,927.00
2023-03-05T12:06:25.345Z,1332.00
2023-03-05T12:07:27.494Z,1811.00
2023-03-05T12:08:25.264Z,1082.00
2023-03-05T12:09:25.277Z,1608.00
2023-03-05T12:10:25.233Z,1290.00
2023-03-05T12:11:25.273Z,1662.00
2023-03-05T12:12:25.222Z,1236.00
2023-03-05T12:13:25.219Z,1663.00
2023-03-05T12:14:25.174Z,1460.00
2023-03-05T12:15:25.219Z,1255.00
2023-03-05T12:16:26.038Z,1990.00
2023-03-05T12:17:25.162Z,1652.00
2023-03-05T12:18:25.127Z,1832.00
2023-03-05T12:19:25.158Z,1613.00
2023-03-05T12:20:25.131Z,1593.00
2023-03-05T12:21:25.118Z,1494.00
2023-03-05T12:22:25.106Z,1356.00
2023-03-05T12:23:25.108Z,1555.00
2023-03-05T12:24:27.922Z,1509.00
2023-03-05T12:25:25.046Z,995.00
2023-03-05T12:26:25.057Z,1839.00
2023-03-05T12:27:25.050Z,1272.00
2023-03-05T12:28:24.987Z,1682.00
2023-03-05T12:29:25.026Z,1555.00
2023-03-05T12:30:25.201Z,1094.00
2023-03-05T12:31:25.024Z,1599.00
2023-03-05T12:32:25.111Z,1524.00
2023-03-05T12:33:24.968Z,1736.00
2023-03-05T12:34:24.969Z,1376.00
2023-03-05T12:35:25.001Z,1073.00
2023-03-05T12:36:24.907Z,1399.00
2023-03-05T12:37:24.977Z,1466.00
2023-03-05T12:38:27.122Z,1538.00
2023-03-05T12:39:24.892Z,1416.00
2023-03-05T12:40:24.832Z,1390.00
2023-03-05T12:41:27.477Z,1406.00
2023-03-05T12:42:24.829Z,1439.00
2023-03-05T12:43:24.829Z,1389.00
2023-03-05T12:44:24.809Z,1468.00
2023-03-05T12:45:24.827Z,1491.00
2023-03-05T12:46:24.877Z,1416.00